Congressman Robert A.roe — WDH3491 — position and weather

sailwx.info

Track history (hours):
 
Tides and Currents Weather Stations Pressure Air Temp Water Temp Dewpoint Dewpoint Depression Visibility Wind Speed Wind Dir Waves Ship Positions

Congressman Robert A.roe

Owner: Port Imperial Ferry Corp., Weehawken, NJ. More information available from US FCC via Universal Licensing System and Coast Guard Vessel Documentation Center.

Last reported at 2018-Feb-23 02:39 UTC. Time now 2018-Feb-23 03:15 UTC.
Position N 40°32' W 074°03'.

Length 27 m; draft 2 m.

Type: Passenger vessel. MMSI: 366902360.

Date/timePositionNaut miles runAvg speedWind from/ knotsBaromVisibWave heightAir tempDewpointWater temp
2018-Feb-23 02:39N 40°32' W 074°03'428.5
2018-Feb-23 02:30N 40°36' W 074°03'713.6
2018-Feb-23 02:00N 40°43' W 074°01'12 8.8
2018-Feb-23 00:42N 40°32' W 074°03'527.5
2018-Feb-23 00:30N 40°37' W 074°03'612.5
2018-Feb-23 00:00N 40°43' W 074°01'3 5.1
2018-Feb-22 23:31N 40°40' W 074°02'8 6.8
2018-Feb-22 22:22N 40°33' W 074°03'1025.3
2018-Feb-22 22:00N 40°42' W 074°00'2 5.0
2018-Feb-22 21:31N 40°40' W 074°01'4 3.2
2018-Feb-22 20:15N 40°36' W 074°03'626.6
2018-Feb-22 20:00N 40°42' W 074°00'3 6.9
2018-Feb-22 19:30N 40°46' W 074°00'3 5.4
2018-Feb-22 19:00N 40°43' W 074°01'2 3.2
2018-Feb-22 18:30N 40°45' W 074°01'2 1.6
2018-Feb-22 17:29N 40°46' W 074°01'0 0.0
2018-Feb-22 15:25N 40°46' W 074°01'0 0.3
2018-Feb-22 15:00N 40°46' W 074°01'4 8.1
2018-Feb-22 14:31N 40°42' W 074°00'8 6.2
2018-Feb-22 13:15N 40°35' W 074°04'730.1
2018-Feb-22 13:01N 40°42' W 074°02'4 7.5
2018-Feb-22 12:30N 40°38' W 074°03'3 0.3
2018-Feb-22 02:34N 40°36' W 074°03'227.0
2018-Feb-22 02:30N 40°37' W 074°03'611.7
2018-Feb-22 02:00N 40°43' W 074°01'11 8.3
2018-Feb-22 00:43N 40°32' W 074°03'627.0
2018-Feb-22 00:30N 40°38' W 074°03'510.7
2018-Feb-22 00:00N 40°43' W 074°01'2 4.3
2018-Feb-21 23:31N 40°41' W 074°02'8 7.3
2018-Feb-21 22:25N 40°33' W 074°04'1023.7
2018-Feb-21 22:00N 40°42' W 074°00'2 3.8
2018-Feb-21 21:31N 40°41' W 074°02'7 6.2
2018-Feb-21 20:22N 40°34' W 074°04'924.9
2018-Feb-21 20:00N 40°42' W 074°00'3 6.8
2018-Feb-21 19:30N 40°46' W 074°00'3 5.5
2018-Feb-21 19:00N 40°43' W 074°01'0 0.1
2018-Feb-21 18:31N 40°43' W 074°01'3 0.9
2018-Feb-21 14:53N 40°46' W 074°01'4 9.5
2018-Feb-21 14:31N 40°43' W 074°01'10 8.5
2018-Feb-21 13:20N 40°33' W 074°04'928.3
2018-Feb-21 13:01N 40°42' W 074°02'4 7.6
2018-Feb-21 12:30N 40°38' W 074°03'6 0.6
2018-Feb-21 02:39N 40°33' W 074°03'426.6
2018-Feb-21 02:31N 40°37' W 074°03'713.0
2018-Feb-21 02:00N 40°43' W 074°01'10 8.0
2018-Feb-21 00:44N 40°33' W 074°03'625.3
2018-Feb-21 00:30N 40°38' W 074°02'5 9.3
2018-Feb-21 00:00N 40°43' W 074°01'2 3.9
2018-Feb-20 23:30N 40°41' W 074°02'9 7.9
2018-Feb-20 22:25N 40°32' W 074°03'1024.1
2018-Feb-20 22:00N 40°42' W 074°00'2 4.2
2018-Feb-20 21:31N 40°40' W 074°01'9 7.9
2018-Feb-20 20:25N 40°32' W 074°04'1125.5
2018-Feb-20 20:00N 40°42' W 074°00'3 7.0
2018-Feb-20 19:30N 40°46' W 074°00'3 5.5
2018-Feb-20 19:00N 40°43' W 074°01'3 5.3
2018-Feb-20 18:30N 40°46' W 074°01'1 0.2
2018-Feb-20 14:47N 40°46' W 074°01'312.3
2018-Feb-20 14:31N 40°43' W 074°01'9 7.3
2018-Feb-20 13:16N 40°34' W 074°03'727.3
2018-Feb-20 13:01N 40°41' W 074°02'2 4.1
2018-Feb-20 12:31N 40°39' W 074°02'  
2018-Feb-17 02:39N 40°33' W 074°04'427.7
2018-Feb-17 02:30N 40°37' W 074°03'612.5
2018-Feb-17 02:00N 40°43' W 074°01'9 6.3
2018-Feb-17 00:37N 40°35' W 074°04'326.1
2018-Feb-17 00:30N 40°38' W 074°03'611.5
2018-Feb-17 00:00N 40°43' W 074°01'2 4.3
2018-Feb-16 23:31N 40°41' W 074°02'7 5.8
2018-Feb-16 22:22N 40°34' W 074°04'822.9
2018-Feb-16 22:01N 40°42' W 074°00'2 4.0
2018-Feb-16 21:30N 40°40' W 074°02'9 8.4
2018-Feb-16 20:27N 40°32' W 074°04'1123.6
2018-Feb-16 19:59N 40°42' W 074°00'3 7.2
2018-Feb-16 19:30N 40°46' W 074°00'3 5.5
2018-Feb-16 19:00N 40°43' W 074°01'0 0.3
2018-Feb-16 18:30N 40°43' W 074°01'3 1.4
2018-Feb-16 16:10N 40°46' W 074°01'0 0.0
2018-Feb-16 16:00N 40°46' W 074°01'0 0.0
2018-Feb-16 15:28N 40°46' W 074°01'0 0.0
2018-Feb-16 15:00N 40°46' W 074°01'4 7.2
2018-Feb-16 14:30N 40°43' W 074°01'11 9.9
2018-Feb-16 13:24N 40°32' W 074°03'1126.9
2018-Feb-16 13:01N 40°42' W 074°02'5 9.3
2018-Feb-16 12:30N 40°38' W 074°03'5 0.5
2018-Feb-16 02:42N 40°33' W 074°03'526.5
2018-Feb-16 02:30N 40°38' W 074°03'611.3
2018-Feb-16 02:00N 40°43' W 074°01'12 9.7
2018-Feb-16 00:46N 40°31' W 074°05'724.6
2018-Feb-16 00:30N 40°38' W 074°03'510.5
2018-Feb-16 00:01N 40°43' W 074°01'2 3.9
2018-Feb-15 23:31N 40°41' W 074°02'9 8.6
2018-Feb-15 22:28N 40°32' W 074°05'1022.6
2018-Feb-15 22:00N 40°42' W 074°00'2 3.3
2018-Feb-15 21:31N 40°41' W 074°02'10 9.0
2018-Feb-15 20:26N 40°31' W 074°04'1126.0
2018-Feb-15 20:01N 40°42' W 074°00'4 6.8
2018-Feb-15 19:29N 40°46' W 074°00'3 5.7
2018-Feb-15 19:00N 40°43' W 074°01'0 0.1
2018-Feb-15 18:31N 40°43' W 074°01'3 6.7
2018-Feb-15 18:00N 40°46' W 074°01'0 0.0
2018-Feb-15 17:30N 40°46' W 074°01'0 0.0
2018-Feb-15 17:00N 40°46' W 074°01'0 0.0
2018-Feb-15 16:30N 40°46' W 074°01'0 0.1
2018-Feb-15 16:00N 40°46' W 074°01'0 0.0
2018-Feb-15 15:30N 40°46' W 074°01'0 0.0
2018-Feb-15 15:00N 40°46' W 074°01'4 8.3
2018-Feb-15 14:30N 40°42' W 074°00'9 8.4
2018-Feb-15 13:24N 40°33' W 074°04'1024.2
2018-Feb-15 13:01N 40°43' W 074°02'5 9.8
2018-Feb-15 12:30N 40°38' W 074°03'6 0.6
2018-Feb-15 02:42N 40°32' W 074°03'527.1
2018-Feb-15 02:30N 40°37' W 074°03'612.1
2018-Feb-15 02:00N 40°43' W 074°01'11 8.4
2018-Feb-15 00:43N 40°32' W 074°03'524.8
2018-Feb-15 00:30N 40°37' W 074°03'611.4
2018-Feb-15 00:01N 40°43' W 074°01'3 5.8
2018-Feb-14 23:30N 40°40' W 074°01'5 4.5
2018-Feb-14 22:21N 40°35' W 074°03'720.6
2018-Feb-14 22:00N 40°42' W 074°00'2 3.3
2018-Feb-14 21:30N 40°40' W 074°02'8 7.3
2018-Feb-14 20:24N 40°33' W 074°04'1025.4
2018-Feb-14 20:00N 40°42' W 074°00'3 6.7
2018-Feb-14 19:30N 40°46' W 074°00'3 5.6
2018-Feb-14 19:00N 40°43' W 074°01'2 4.5
2018-Feb-14 18:30N 40°45' W 074°01'1 0.5
2018-Feb-14 16:19N 40°46' W 074°01'0 0.1
2018-Feb-14 16:00N 40°46' W 074°01'0 0.0
2018-Feb-14 15:29N 40°46' W 074°01'0 0.1
2018-Feb-14 15:00N 40°46' W 074°01'4 8.1
2018-Feb-14 14:30N 40°42' W 074°00'9 8.6
2018-Feb-14 13:25N 40°33' W 074°04'1023.9
2018-Feb-14 13:00N 40°43' W 074°02'510.9
2018-Feb-14 12:30N 40°38' W 074°03'5 0.5
2018-Feb-14 02:38N 40°32' W 074°03'427.6
2018-Feb-14 02:30N 40°36' W 074°03'713.9
2018-Feb-14 02:00N 40°43' W 074°01'10 7.4
2018-Feb-14 00:43N 40°34' W 074°04'524.6
2018-Feb-14 00:30N 40°39' W 074°02'4 9.0
2018-Feb-14 00:01N 40°43' W 074°01'2 3.7
2018-Feb-13 23:31N 40°41' W 074°02'9 8.2
2018-Feb-13 22:27N 40°33' W 074°04'1021.6
2018-Feb-13 22:00N 40°42' W 074°00'2 3.8
2018-Feb-13 21:30N 40°40' W 074°01'8 7.5
2018-Feb-13 20:26N 40°32' W 074°03'1022.5
2018-Feb-13 20:00N 40°42' W 074°00'3 7.0
2018-Feb-13 19:30N 40°46' W 074°00'3 5.5
2018-Feb-13 19:00N 40°43' W 074°01'0 0.3
2018-Feb-13 18:30N 40°43' W 074°01'3 1.3
2018-Feb-13 16:02N 40°46' W 074°01'0 0.1
2018-Feb-13 15:15N 40°46' W 074°01'0 0.1
2018-Feb-13 15:01N 40°46' W 074°01'4 8.2
2018-Feb-13 14:30N 40°42' W 074°00'1414.0
2018-Feb-13 13:32N 40°29' W 074°04'329.0
2018-Feb-13 13:25N 40°32' W 074°04'1125.7
2018-Feb-13 13:01N 40°43' W 074°02'611.2
2018-Feb-13 12:30N 40°37' W 074°03'6 0.6
2018-Feb-13 02:39N 40°31' W 074°03'  
Track history (hours):
 
Tides and Currents Weather Stations Pressure Air Temp Water Temp Dewpoint Dewpoint Depression Visibility Wind Speed Wind Dir Waves Ship Positions

Congressman Robert A.roe

Owner: Port Imperial Ferry Corp., Weehawken, NJ. More information available from US FCC via Universal Licensing System and Coast Guard Vessel Documentation Center.

Last reported at 2018-Feb-23 02:39 UTC. Time now 2018-Feb-23 03:15 UTC.
Position N 40°32' W 074°03'.

Length 27 m; draft 2 m.

Type: Passenger vessel. MMSI: 366902360.

Date/timePositionNaut miles runAvg speedWind from/ knotsBaromVisibWave heightAir tempDewpointWater temp
2018-Feb-23 02:39N 40°32' W 074°03'428.5
2018-Feb-23 02:30N 40°36' W 074°03'713.6
2018-Feb-23 02:00N 40°43' W 074°01'12 8.8
2018-Feb-23 00:42N 40°32' W 074°03'527.5
2018-Feb-23 00:30N 40°37' W 074°03'612.5
2018-Feb-23 00:00N 40°43' W 074°01'3 5.1
2018-Feb-22 23:31N 40°40' W 074°02'8 6.8
2018-Feb-22 22:22N 40°33' W 074°03'1025.3
2018-Feb-22 22:00N 40°42' W 074°00'2 5.0
2018-Feb-22 21:31N 40°40' W 074°01'4 3.2
2018-Feb-22 20:15N 40°36' W 074°03'626.6
2018-Feb-22 20:00N 40°42' W 074°00'3 6.9
2018-Feb-22 19:30N 40°46' W 074°00'3 5.4
2018-Feb-22 19:00N 40°43' W 074°01'2 3.2
2018-Feb-22 18:30N 40°45' W 074°01'2 1.6
2018-Feb-22 17:29N 40°46' W 074°01'0 0.0
2018-Feb-22 15:25N 40°46' W 074°01'0 0.3
2018-Feb-22 15:00N 40°46' W 074°01'4 8.1
2018-Feb-22 14:31N 40°42' W 074°00'8 6.2
2018-Feb-22 13:15N 40°35' W 074°04'730.1
2018-Feb-22 13:01N 40°42' W 074°02'4 7.5
2018-Feb-22 12:30N 40°38' W 074°03'3 0.3
2018-Feb-22 02:34N 40°36' W 074°03'227.0
2018-Feb-22 02:30N 40°37' W 074°03'611.7
2018-Feb-22 02:00N 40°43' W 074°01'11 8.3
2018-Feb-22 00:43N 40°32' W 074°03'627.0
2018-Feb-22 00:30N 40°38' W 074°03'510.7
2018-Feb-22 00:00N 40°43' W 074°01'2 4.3
2018-Feb-21 23:31N 40°41' W 074°02'8 7.3
2018-Feb-21 22:25N 40°33' W 074°04'1023.7
2018-Feb-21 22:00N 40°42' W 074°00'2 3.8
2018-Feb-21 21:31N 40°41' W 074°02'7 6.2
2018-Feb-21 20:22N 40°34' W 074°04'924.9
2018-Feb-21 20:00N 40°42' W 074°00'3 6.8
2018-Feb-21 19:30N 40°46' W 074°00'3 5.5
2018-Feb-21 19:00N 40°43' W 074°01'0 0.1
2018-Feb-21 18:31N 40°43' W 074°01'3 0.9
2018-Feb-21 14:53N 40°46' W 074°01'4 9.5
2018-Feb-21 14:31N 40°43' W 074°01'10 8.5
2018-Feb-21 13:20N 40°33' W 074°04'928.3
2018-Feb-21 13:01N 40°42' W 074°02'4 7.6
2018-Feb-21 12:30N 40°38' W 074°03'6 0.6
2018-Feb-21 02:39N 40°33' W 074°03'426.6
2018-Feb-21 02:31N 40°37' W 074°03'713.0
2018-Feb-21 02:00N 40°43' W 074°01'10 8.0
2018-Feb-21 00:44N 40°33' W 074°03'625.3
2018-Feb-21 00:30N 40°38' W 074°02'5 9.3
2018-Feb-21 00:00N 40°43' W 074°01'2 3.9
2018-Feb-20 23:30N 40°41' W 074°02'9 7.9
2018-Feb-20 22:25N 40°32' W 074°03'1024.1
2018-Feb-20 22:00N 40°42' W 074°00'2 4.2
2018-Feb-20 21:31N 40°40' W 074°01'9 7.9
2018-Feb-20 20:25N 40°32' W 074°04'1125.5
2018-Feb-20 20:00N 40°42' W 074°00'3 7.0
2018-Feb-20 19:30N 40°46' W 074°00'3 5.5
2018-Feb-20 19:00N 40°43' W 074°01'3 5.3
2018-Feb-20 18:30N 40°46' W 074°01'1 0.2
2018-Feb-20 14:47N 40°46' W 074°01'312.3
2018-Feb-20 14:31N 40°43' W 074°01'9 7.3
2018-Feb-20 13:16N 40°34' W 074°03'727.3
2018-Feb-20 13:01N 40°41' W 074°02'2 4.1
2018-Feb-20 12:31N 40°39' W 074°02'  
2018-Feb-17 02:39N 40°33' W 074°04'427.7
2018-Feb-17 02:30N 40°37' W 074°03'612.5
2018-Feb-17 02:00N 40°43' W 074°01'9 6.3
2018-Feb-17 00:37N 40°35' W 074°04'326.1
2018-Feb-17 00:30N 40°38' W 074°03'611.5
2018-Feb-17 00:00N 40°43' W 074°01'2 4.3
2018-Feb-16 23:31N 40°41' W 074°02'7 5.8
2018-Feb-16 22:22N 40°34' W 074°04'822.9
2018-Feb-16 22:01N 40°42' W 074°00'2 4.0
2018-Feb-16 21:30N 40°40' W 074°02'9 8.4
2018-Feb-16 20:27N 40°32' W 074°04'1123.6
2018-Feb-16 19:59N 40°42' W 074°00'3 7.2
2018-Feb-16 19:30N 40°46' W 074°00'3 5.5
2018-Feb-16 19:00N 40°43' W 074°01'0 0.3
2018-Feb-16 18:30N 40°43' W 074°01'3 1.4
2018-Feb-16 16:10N 40°46' W 074°01'0 0.0
2018-Feb-16 16:00N 40°46' W 074°01'0 0.0
2018-Feb-16 15:28N 40°46' W 074°01'0 0.0
2018-Feb-16 15:00N 40°46' W 074°01'4 7.2
2018-Feb-16 14:30N 40°43' W 074°01'11 9.9
2018-Feb-16 13:24N 40°32' W 074°03'1126.9
2018-Feb-16 13:01N 40°42' W 074°02'5 9.3
2018-Feb-16 12:30N 40°38' W 074°03'5 0.5
2018-Feb-16 02:42N 40°33' W 074°03'526.5
2018-Feb-16 02:30N 40°38' W 074°03'611.3
2018-Feb-16 02:00N 40°43' W 074°01'12 9.7
2018-Feb-16 00:46N 40°31' W 074°05'724.6
2018-Feb-16 00:30N 40°38' W 074°03'510.5
2018-Feb-16 00:01N 40°43' W 074°01'2 3.9
2018-Feb-15 23:31N 40°41' W 074°02'9 8.6
2018-Feb-15 22:28N 40°32' W 074°05'1022.6
2018-Feb-15 22:00N 40°42' W 074°00'2 3.3
2018-Feb-15 21:31N 40°41' W 074°02'10 9.0
2018-Feb-15 20:26N 40°31' W 074°04'1126.0
2018-Feb-15 20:01N 40°42' W 074°00'4 6.8
2018-Feb-15 19:29N 40°46' W 074°00'3 5.7
2018-Feb-15 19:00N 40°43' W 074°01'0 0.1
2018-Feb-15 18:31N 40°43' W 074°01'3 6.7
2018-Feb-15 18:00N 40°46' W 074°01'0 0.0
2018-Feb-15 17:30N 40°46' W 074°01'0 0.0
2018-Feb-15 17:00N 40°46' W 074°01'0 0.0
2018-Feb-15 16:30N 40°46' W 074°01'0 0.1
2018-Feb-15 16:00N 40°46' W 074°01'0 0.0
2018-Feb-15 15:30N 40°46' W 074°01'0 0.0
2018-Feb-15 15:00N 40°46' W 074°01'4 8.3
2018-Feb-15 14:30N 40°42' W 074°00'9 8.4
2018-Feb-15 13:24N 40°33' W 074°04'1024.2
2018-Feb-15 13:01N 40°43' W 074°02'5 9.8
2018-Feb-15 12:30N 40°38' W 074°03'6 0.6
2018-Feb-15 02:42N 40°32' W 074°03'527.1
2018-Feb-15 02:30N 40°37' W 074°03'612.1
2018-Feb-15 02:00N 40°43' W 074°01'11 8.4
2018-Feb-15 00:43N 40°32' W 074°03'524.8
2018-Feb-15 00:30N 40°37' W 074°03'611.4
2018-Feb-15 00:01N 40°43' W 074°01'3 5.8
2018-Feb-14 23:30N 40°40' W 074°01'5 4.5
2018-Feb-14 22:21N 40°35' W 074°03'720.6
2018-Feb-14 22:00N 40°42' W 074°00'2 3.3
2018-Feb-14 21:30N 40°40' W 074°02'8 7.3
2018-Feb-14 20:24N 40°33' W 074°04'1025.4
2018-Feb-14 20:00N 40°42' W 074°00'3 6.7
2018-Feb-14 19:30N 40°46' W 074°00'3 5.6
2018-Feb-14 19:00N 40°43' W 074°01'2 4.5
2018-Feb-14 18:30N 40°45' W 074°01'1 0.5
2018-Feb-14 16:19N 40°46' W 074°01'0 0.1
2018-Feb-14 16:00N 40°46' W 074°01'0 0.0
2018-Feb-14 15:29N 40°46' W 074°01'0 0.1
2018-Feb-14 15:00N 40°46' W 074°01'4 8.1
2018-Feb-14 14:30N 40°42' W 074°00'9 8.6
2018-Feb-14 13:25N 40°33' W 074°04'1023.9
2018-Feb-14 13:00N 40°43' W 074°02'510.9
2018-Feb-14 12:30N 40°38' W 074°03'5 0.5
2018-Feb-14 02:38N 40°32' W 074°03'427.6
2018-Feb-14 02:30N 40°36' W 074°03'713.9
2018-Feb-14 02:00N 40°43' W 074°01'10 7.4
2018-Feb-14 00:43N 40°34' W 074°04'524.6
2018-Feb-14 00:30N 40°39' W 074°02'4 9.0
2018-Feb-14 00:01N 40°43' W 074°01'2 3.7
2018-Feb-13 23:31N 40°41' W 074°02'9 8.2
2018-Feb-13 22:27N 40°33' W 074°04'1021.6
2018-Feb-13 22:00N 40°42' W 074°00'2 3.8
2018-Feb-13 21:30N 40°40' W 074°01'8 7.5
2018-Feb-13 20:26N 40°32' W 074°03'1022.5
2018-Feb-13 20:00N 40°42' W 074°00'3 7.0
2018-Feb-13 19:30N 40°46' W 074°00'3 5.5
2018-Feb-13 19:00N 40°43' W 074°01'0 0.3
2018-Feb-13 18:30N 40°43' W 074°01'3 1.3
2018-Feb-13 16:02N 40°46' W 074°01'0 0.1
2018-Feb-13 15:15N 40°46' W 074°01'0 0.1
2018-Feb-13 15:01N 40°46' W 074°01'4 8.2
2018-Feb-13 14:30N 40°42' W 074°00'1414.0
2018-Feb-13 13:32N 40°29' W 074°04'329.0
2018-Feb-13 13:25N 40°32' W 074°04'1125.7
2018-Feb-13 13:01N 40°43' W 074°02'611.2
2018-Feb-13 12:30N 40°37' W 074°03'6 0.6
2018-Feb-13 02:39N 40°31' W 074°03'  

Dump ship's entire track history